createdAt,value
2023-01-03T00:02:15.424Z,0.70
2023-01-03T00:04:49.187Z,0.60
2023-01-03T00:07:33.851Z,0.70
2023-01-03T00:10:02.988Z,0.97
2023-01-03T00:12:32.353Z,0.63
2023-01-03T00:15:02.312Z,0.50
2023-01-03T00:17:30.651Z,0.70
2023-01-03T00:19:59.045Z,0.67
2023-01-03T00:22:27.446Z,0.60
2023-01-03T00:24:55.825Z,0.80
2023-01-03T00:27:24.193Z,0.60
2023-01-03T00:29:52.850Z,0.60
2023-01-03T00:32:22.585Z,0.60
2023-01-03T00:34:50.925Z,0.63
2023-01-03T00:37:19.257Z,0.60
2023-01-03T00:39:47.651Z,0.43
2023-01-03T00:42:16.026Z,0.70
2023-01-03T00:44:44.374Z,0.50
2023-01-03T00:47:12.706Z,0.80
2023-01-03T00:49:42.430Z,0.50
2023-01-03T00:52:10.816Z,0.60
2023-01-03T00:54:39.281Z,0.60
2023-01-03T00:57:07.633Z,0.50
2023-01-03T00:59:35.996Z,0.60
2023-01-03T01:02:05.144Z,0.53
2023-01-03T01:04:34.094Z,0.63
2023-01-03T01:07:04.838Z,0.50
2023-01-03T01:09:34.498Z,0.60
2023-01-03T01:12:02.889Z,0.50
2023-01-03T01:14:33.557Z,0.60
2023-01-03T01:17:03.245Z,0.60
2023-01-03T01:19:32.734Z,0.70
2023-01-03T01:22:01.459Z,0.50
2023-01-03T01:24:31.588Z,1.03
2023-01-03T01:27:00.819Z,0.70
2023-01-03T01:29:29.412Z,0.60
2023-01-03T01:31:57.802Z,0.70
2023-01-03T01:34:26.205Z,0.70
2023-01-03T01:36:54.651Z,0.50
2023-01-03T01:39:23.753Z,0.63
2023-01-03T01:42:18.971Z,0.70
2023-01-03T01:44:52.072Z,0.80
2023-01-03T01:47:24.396Z,0.80
2023-01-03T01:49:54.281Z,0.80
2023-01-03T01:52:23.766Z,0.80
2023-01-03T01:54:53.561Z,0.73
2023-01-03T01:57:24.318Z,0.70
2023-01-03T01:59:52.709Z,0.80
2023-01-03T02:02:22.355Z,0.80
2023-01-03T02:04:52.461Z,0.73
2023-01-03T02:07:22.578Z,0.80
2023-01-03T02:09:54.252Z,0.80
2023-01-03T02:12:45.448Z,0.80
2023-01-03T02:15:17.537Z,0.80
2023-01-03T02:17:50.141Z,0.80
2023-01-03T02:20:36.509Z,0.97
2023-01-03T02:23:23.188Z,0.90
2023-01-03T02:26:25.005Z,1.00
2023-01-03T02:29:11.245Z,0.90
2023-01-03T02:31:45.236Z,1.13
2023-01-03T02:34:16.632Z,0.83
2023-01-03T02:36:49.484Z,1.10
2023-01-03T02:39:23.918Z,1.10
2023-01-03T02:42:16.602Z,1.00
2023-01-03T02:44:49.261Z,1.07
2023-01-03T02:47:21.140Z,1.10
2023-01-03T02:49:52.792Z,1.10
2023-01-03T02:52:22.402Z,1.30
2023-01-03T02:54:54.658Z,1.20
2023-01-03T02:57:25.266Z,1.20
2023-01-03T02:59:55.476Z,1.10
2023-01-03T03:02:29.944Z,1.20
2023-01-03T03:04:59.330Z,1.27
2023-01-03T03:07:29.677Z,1.30
2023-01-03T03:10:15.781Z,1.30
2023-01-03T03:13:03.049Z,1.50
2023-01-03T03:15:34.147Z,1.30
2023-01-03T03:18:07.861Z,1.20
2023-01-03T03:20:53.784Z,1.13
2023-01-03T03:23:41.610Z,1.20
2023-01-03T03:26:11.597Z,1.30
2023-01-03T03:28:43.519Z,1.40
2023-01-03T03:31:13.839Z,1.30
2023-01-03T03:33:48.445Z,1.20
2023-01-03T03:36:20.283Z,1.40
2023-01-03T03:38:48.861Z,1.30
2023-01-03T03:41:38.353Z,1.37
2023-01-03T03:44:24.408Z,1.50
2023-01-03T03:46:55.715Z,1.30
2023-01-03T03:49:39.299Z,1.33
2023-01-03T03:52:09.433Z,1.17
2023-01-03T03:54:38.715Z,1.43
2023-01-03T03:57:09.238Z,1.20
2023-01-03T03:59:38.786Z,1.23
2023-01-03T04:02:08.297Z,1.10
2023-01-03T04:04:39.585Z,1.30
2023-01-03T04:07:07.942Z,1.00
2023-01-03T04:09:36.527Z,0.90
2023-01-03T04:12:04.971Z,1.20
2023-01-03T04:14:33.719Z,0.90
2023-01-03T04:17:03.380Z,1.27
2023-01-03T04:19:32.532Z,1.13
2023-01-03T04:22:02.238Z,1.20
2023-01-03T04:24:30.629Z,1.33
2023-01-03T04:26:59.017Z,1.17
2023-01-03T04:29:27.399Z,1.03
2023-01-03T04:31:55.812Z,1.20
2023-01-03T04:34:24.559Z,1.30
2023-01-03T04:36:52.924Z,1.40
2023-01-03T04:39:22.686Z,0.97
2023-01-03T04:41:51.039Z,1.30
2023-01-03T04:48:13.610Z,1.27
2023-01-03T04:50:42.019Z,1.40
2023-01-03T04:53:10.894Z,1.20
2023-01-03T04:55:47.311Z,1.20
2023-01-03T04:58:15.670Z,1.10
2023-01-03T05:00:44.047Z,1.50
2023-01-03T05:03:12.538Z,1.30
2023-01-03T05:05:41.119Z,1.60
2023-01-03T05:08:10.475Z,1.30
2023-01-03T05:10:41.375Z,1.63
2023-01-03T05:13:09.850Z,1.70
2023-01-03T05:15:39.313Z,1.63
2023-01-03T05:18:07.755Z,1.63
2023-01-03T05:20:55.570Z,1.77
2023-01-03T05:23:47.536Z,1.80
2023-01-03T05:26:17.982Z,1.53
2023-01-03T05:28:47.648Z,1.67
2023-01-03T05:31:16.081Z,1.90
2023-01-03T05:33:44.463Z,2.10
2023-01-03T05:36:12.884Z,1.60
2023-01-03T05:38:41.317Z,1.97
2023-01-03T05:41:09.811Z,2.00
2023-01-03T05:43:39.517Z,1.50
2023-01-03T05:46:08.067Z,2.00
2023-01-03T05:48:36.446Z,1.63
2023-01-03T05:51:05.021Z,1.70
2023-01-03T05:53:33.356Z,1.90
2023-01-03T05:56:05.575Z,1.63
2023-01-03T05:58:33.907Z,1.93
2023-01-03T06:01:09.413Z,1.57
2023-01-03T06:03:37.830Z,1.70
2023-01-03T06:06:06.571Z,1.80
2023-01-03T06:08:35.278Z,1.97
2023-01-03T06:11:06.444Z,1.57
2023-01-03T06:13:35.062Z,2.20
2023-01-03T06:16:26.756Z,1.70
2023-01-03T06:18:55.141Z,2.07
2023-01-03T06:21:24.231Z,1.97
2023-01-03T06:23:52.718Z,1.50
2023-01-03T06:26:21.806Z,1.70
2023-01-03T06:28:50.391Z,2.10
2023-01-03T06:31:20.978Z,2.13
2023-01-03T06:33:49.898Z,2.10
2023-01-03T06:36:19.193Z,2.13
2023-01-03T06:38:47.648Z,2.10
2023-01-03T06:41:16.608Z,2.13
2023-01-03T06:43:45.284Z,2.03
2023-01-03T06:46:31.651Z,2.60
2023-01-03T06:49:19.405Z,2.50
2023-01-03T06:52:07.517Z,2.90
2023-01-03T06:54:37.111Z,2.70
2023-01-03T06:57:06.020Z,2.93
2023-01-03T06:59:34.425Z,3.00
2023-01-03T07:02:02.942Z,2.90
2023-01-03T07:04:33.074Z,2.77
2023-01-03T07:07:01.501Z,3.73
2023-01-03T07:09:29.855Z,3.20
2023-01-03T07:12:18.232Z,3.90
2023-01-03T07:14:45.688Z,3.63
2023-01-03T07:17:16.311Z,4.40
2023-01-03T07:19:47.230Z,4.20
2023-01-03T07:22:15.574Z,4.50
2023-01-03T07:24:43.965Z,3.60
2023-01-03T07:27:13.018Z,3.93
2023-01-03T07:29:41.422Z,3.80
2023-01-03T07:32:09.963Z,3.77
2023-01-03T07:34:38.354Z,3.93
2023-01-03T07:37:08.132Z,4.00
2023-01-03T07:39:36.532Z,3.30
2023-01-03T07:42:22.622Z,4.03
2023-01-03T07:44:51.007Z,4.13
2023-01-03T07:47:19.500Z,3.63
2023-01-03T07:49:48.000Z,4.90
2023-01-03T07:52:17.761Z,3.80
2023-01-03T07:54:46.308Z,4.20
2023-01-03T07:57:16.122Z,5.60
2023-01-03T07:59:44.636Z,4.93
2023-01-03T08:02:13.167Z,4.90
2023-01-03T08:04:43.557Z,6.43
2023-01-03T08:07:11.953Z,5.70
2023-01-03T08:10:14.072Z,5.87
2023-01-03T08:12:59.801Z,5.90
2023-01-03T08:15:28.167Z,5.13
2023-01-03T08:17:56.553Z,5.40
2023-01-03T08:20:25.003Z,5.47
2023-01-03T08:22:53.341Z,5.50
2023-01-03T08:25:23.073Z,4.83
2023-01-03T08:27:51.428Z,5.30
2023-01-03T08:30:20.078Z,5.87
2023-01-03T08:32:48.495Z,5.60
2023-01-03T08:35:17.154Z,4.97
2023-01-03T08:37:46.007Z,5.33
2023-01-03T08:40:16.941Z,5.43
2023-01-03T08:42:47.282Z,4.80
2023-01-03T08:45:17.668Z,4.70
2023-01-03T08:47:46.492Z,5.30
2023-01-03T08:50:15.773Z,5.10
2023-01-03T08:52:44.219Z,3.97
2023-01-03T08:55:12.616Z,5.10
2023-01-03T08:57:41.392Z,5.07
2023-01-03T09:00:12.197Z,4.70
2023-01-03T09:02:41.025Z,5.33
2023-01-03T09:05:10.200Z,5.87
2023-01-03T09:07:38.569Z,5.50
2023-01-03T09:10:07.391Z,5.30
2023-01-03T09:12:35.768Z,6.43
2023-01-03T09:15:04.365Z,5.30
2023-01-03T09:17:34.198Z,6.13
2023-01-03T09:20:02.596Z,5.10
2023-01-03T09:22:31.239Z,5.00
2023-01-03T09:24:59.876Z,5.30
2023-01-03T09:27:28.231Z,5.37
2023-01-03T09:29:56.671Z,5.80
2023-01-03T09:32:25.016Z,5.70
2023-01-03T09:34:54.733Z,7.37
2023-01-03T09:37:23.063Z,6.00
2023-01-03T09:39:51.706Z,5.10
2023-01-03T09:42:39.405Z,6.67
2023-01-03T09:45:08.920Z,6.10
2023-01-03T09:47:38.693Z,6.60
2023-01-03T09:50:39.247Z,7.27
2023-01-03T09:53:20.409Z,8.47
2023-01-03T09:56:08.843Z,7.67
2023-01-03T09:58:55.185Z,7.77
2023-01-03T10:01:46.189Z,9.10
2023-01-03T10:04:25.591Z,8.70
2023-01-03T10:06:58.450Z,9.07
2023-01-03T10:09:31.866Z,6.63
2023-01-03T10:12:07.743Z,8.27
2023-01-03T10:14:44.445Z,8.27
2023-01-03T10:17:20.131Z,9.37
2023-01-03T10:19:58.429Z,9.87
2023-01-03T10:22:29.663Z,8.67
2023-01-03T10:25:02.257Z,8.27
2023-01-03T10:27:32.592Z,6.70
2023-01-03T10:30:02.273Z,7.97
2023-01-03T10:32:44.300Z,8.10
2023-01-03T10:35:20.509Z,8.03
2023-01-03T10:37:52.473Z,7.13
2023-01-03T10:40:21.114Z,6.17
2023-01-03T10:42:50.522Z,6.67
2023-01-03T10:45:20.459Z,6.80
2023-01-03T10:47:59.193Z,6.23
2023-01-03T10:50:27.926Z,6.17
2023-01-03T10:53:00.252Z,7.13
2023-01-03T10:55:29.013Z,7.23
2023-01-03T10:58:01.885Z,6.03
2023-01-03T11:00:32.478Z,7.03
2023-01-03T11:03:09.800Z,6.70
2023-01-03T11:05:38.716Z,6.87
2023-01-03T11:08:15.753Z,6.50
2023-01-03T11:10:51.812Z,6.70
2023-01-03T11:13:27.364Z,6.43
2023-01-03T11:15:56.488Z,6.60
2023-01-03T11:18:26.727Z,7.63
2023-01-03T11:21:00.063Z,6.50
2023-01-03T11:23:35.608Z,6.70
2023-01-03T11:26:06.735Z,5.43
2023-01-03T11:28:52.210Z,5.53
2023-01-03T11:31:28.466Z,4.77
2023-01-03T11:34:01.991Z,5.03
2023-01-03T11:36:34.481Z,4.50
2023-01-03T11:39:14.975Z,4.30
2023-01-03T11:41:59.215Z,4.80
2023-01-03T11:44:45.946Z,5.87
2023-01-03T11:47:22.009Z,5.37
2023-01-03T11:49:55.857Z,6.67
2023-01-03T11:52:29.978Z,6.47
2023-01-03T11:55:17.131Z,7.00
2023-01-03T11:57:51.975Z,5.87
2023-01-03T12:00:24.284Z,5.40
2023-01-03T12:03:00.359Z,5.50
2023-01-03T12:05:45.694Z,6.80
2023-01-03T12:08:30.336Z,6.27
2023-01-03T12:11:03.374Z,6.57
2023-01-03T12:13:35.411Z,6.87
2023-01-03T12:16:04.967Z,7.80
2023-01-03T12:18:39.510Z,6.23
2023-01-03T12:21:11.294Z,7.30
2023-01-03T12:23:42.778Z,6.73
2023-01-03T12:30:16.539Z,8.90
2023-01-03T12:36:38.387Z,9.93
2023-01-03T12:39:12.270Z,8.50
2023-01-03T12:41:44.501Z,9.03
2023-01-03T12:44:15.605Z,8.80
2023-01-03T12:46:47.539Z,7.27
2023-01-03T12:49:19.075Z,8.87
2023-01-03T12:51:47.783Z,8.30
2023-01-03T12:54:20.473Z,9.50
2023-01-03T12:57:02.369Z,9.73
2023-01-03T12:59:41.375Z,9.10
2023-01-03T13:02:18.360Z,9.23
2023-01-03T13:04:47.480Z,9.37
2023-01-03T13:07:18.936Z,7.93
2023-01-03T13:09:50.235Z,9.30
2023-01-03T13:12:21.131Z,8.23
2023-01-03T13:14:53.989Z,9.63
2023-01-03T13:17:25.039Z,9.83
2023-01-03T13:19:54.288Z,10.73
2023-01-03T13:22:25.033Z,9.40
2023-01-03T13:24:54.175Z,8.27
2023-01-03T13:27:23.692Z,7.37
2023-01-03T13:29:58.447Z,8.17
2023-01-03T13:32:34.625Z,8.77
2023-01-03T13:35:31.237Z,8.10
2023-01-03T13:38:01.944Z,9.80
2023-01-03T13:41:15.289Z,9.73
2023-01-03T13:43:22.350Z,7.50
2023-01-03T13:45:52.472Z,9.57
2023-01-03T13:48:24.978Z,8.10
2023-01-03T13:51:26.280Z,8.50
2023-01-03T13:53:57.517Z,10.27
2023-01-03T13:56:26.767Z,11.30
2023-01-03T13:58:57.002Z,8.37
2023-01-03T14:01:31.399Z,10.27
2023-01-03T14:04:12.942Z,8.50
2023-01-03T14:06:55.255Z,8.40
2023-01-03T14:09:34.155Z,8.67
2023-01-03T14:12:11.887Z,10.90
2023-01-03T14:14:41.683Z,9.43
2023-01-03T14:17:17.606Z,10.70
2023-01-03T14:19:51.966Z,8.17
2023-01-03T14:22:29.834Z,8.57
2023-01-03T14:25:00.874Z,8.93
2023-01-03T14:27:30.981Z,8.87
2023-01-03T14:29:59.337Z,9.57
2023-01-03T14:32:34.377Z,9.17
2023-01-03T14:35:04.792Z,8.07
2023-01-03T14:37:35.084Z,8.87
2023-01-03T14:40:04.267Z,10.33
2023-01-03T14:42:32.789Z,9.53
2023-01-03T14:45:02.196Z,8.77
2023-01-03T14:47:32.252Z,8.37
2023-01-03T14:50:01.048Z,8.03
2023-01-03T14:52:32.366Z,7.90
2023-01-03T14:55:04.833Z,7.87
2023-01-03T14:57:33.917Z,6.80
2023-01-03T15:00:02.832Z,7.43
2023-01-03T15:02:32.506Z,7.20
2023-01-03T15:05:03.503Z,7.87
2023-01-03T15:07:35.323Z,9.20
2023-01-03T15:10:08.333Z,9.37
2023-01-03T15:12:38.043Z,10.73
2023-01-03T15:15:13.933Z,10.20
2023-01-03T15:17:42.485Z,10.70
2023-01-03T15:20:11.189Z,9.97
2023-01-03T15:22:42.682Z,9.23
2023-01-03T15:25:18.243Z,9.97
2023-01-03T15:27:47.410Z,10.23
2023-01-03T15:30:24.791Z,10.00
2023-01-03T15:33:00.973Z,10.23
2023-01-03T15:35:38.589Z,12.10
2023-01-03T15:38:13.784Z,11.40
2023-01-03T15:40:42.642Z,10.73
2023-01-03T15:43:24.523Z,11.23
2023-01-03T15:46:00.701Z,11.83
2023-01-03T15:48:29.580Z,14.00
2023-01-03T15:50:58.026Z,14.77
2023-01-03T15:53:34.311Z,12.23
2023-01-03T15:56:07.788Z,13.20
2023-01-03T15:58:37.662Z,13.50
2023-01-03T16:01:06.767Z,13.17
2023-01-03T16:03:36.250Z,14.90
2023-01-03T16:06:06.119Z,13.43
2023-01-03T16:08:36.758Z,13.40
2023-01-03T16:11:07.090Z,14.30
2023-01-03T16:13:37.512Z,14.00
2023-01-03T16:16:06.861Z,14.17
2023-01-03T16:18:37.650Z,12.00
2023-01-03T16:21:06.946Z,15.30
2023-01-03T16:23:37.136Z,17.30
2023-01-03T16:26:05.713Z,14.33
2023-01-03T16:28:34.329Z,16.00
2023-01-03T16:31:03.901Z,14.70
2023-01-03T16:33:34.258Z,15.77
2023-01-03T16:36:02.877Z,16.03
2023-01-03T16:38:32.362Z,17.40
2023-01-03T16:41:02.396Z,16.37
2023-01-03T16:43:30.813Z,16.60
2023-01-03T16:46:00.700Z,16.17
2023-01-03T16:48:35.805Z,14.33
2023-01-03T16:51:04.291Z,16.37
2023-01-03T16:53:34.627Z,15.90
2023-01-03T16:56:04.742Z,15.63
2023-01-03T16:58:33.183Z,16.23
2023-01-03T17:01:01.610Z,15.37
2023-01-03T17:03:30.069Z,15.30
2023-01-03T17:05:58.853Z,15.23
2023-01-03T17:08:30.592Z,16.50
2023-01-03T17:10:59.904Z,17.63
2023-01-03T17:13:31.707Z,17.50
2023-01-03T17:16:00.779Z,17.27
2023-01-03T17:18:30.009Z,16.30
2023-01-03T17:21:00.530Z,16.17
2023-01-03T17:23:29.417Z,16.03
2023-01-03T17:25:58.450Z,16.07
2023-01-03T17:28:26.959Z,16.40
2023-01-03T17:30:57.299Z,16.27
2023-01-03T17:33:31.931Z,16.57
2023-01-03T17:36:02.658Z,15.53
2023-01-03T17:38:31.944Z,17.23
2023-01-03T17:41:00.378Z,15.47
2023-01-03T17:43:28.912Z,14.73
2023-01-03T17:46:23.406Z,14.47
2023-01-03T17:49:11.882Z,16.93
2023-01-03T17:51:40.267Z,17.33
2023-01-03T17:54:08.685Z,18.37
2023-01-03T17:56:37.418Z,17.67
2023-01-03T17:59:05.849Z,16.13
2023-01-03T18:01:35.719Z,14.17
2023-01-03T18:04:04.545Z,16.40
2023-01-03T18:06:33.189Z,14.90
2023-01-03T18:09:03.340Z,17.20
2023-01-03T18:11:31.718Z,17.03
2023-01-03T18:14:00.241Z,15.67
2023-01-03T18:16:28.781Z,15.93
2023-01-03T18:18:58.600Z,18.20
2023-01-03T18:21:28.305Z,18.40
2023-01-03T18:23:58.184Z,16.20
2023-01-03T18:26:28.971Z,16.97
2023-01-03T18:28:57.345Z,18.27
2023-01-03T18:31:25.814Z,15.90
2023-01-03T18:33:54.317Z,16.90
2023-01-03T18:36:26.163Z,18.37
2023-01-03T18:38:57.877Z,18.47
2023-01-03T18:41:27.780Z,21.83
2023-01-03T18:43:56.361Z,23.70
2023-01-03T18:46:26.666Z,21.27
2023-01-03T18:48:55.300Z,23.33
2023-01-03T18:51:26.037Z,19.20
2023-01-03T18:53:55.950Z,20.43
2023-01-03T18:56:30.215Z,21.13
2023-01-03T18:59:02.404Z,19.37
2023-01-03T19:01:31.450Z,18.53
2023-01-03T19:04:00.308Z,20.33
2023-01-03T19:06:33.339Z,15.63
2023-01-03T19:09:02.638Z,21.47
2023-01-03T19:11:32.785Z,18.37
2023-01-03T19:14:03.120Z,17.70
2023-01-03T19:16:32.900Z,24.90
2023-01-03T19:19:01.735Z,21.27
2023-01-03T19:21:33.451Z,20.83
2023-01-03T19:24:03.456Z,22.13
2023-01-03T19:26:33.498Z,20.77
2023-01-03T19:29:02.822Z,17.23
2023-01-03T19:31:35.910Z,18.23
2023-01-03T19:34:04.320Z,23.00
2023-01-03T19:36:34.235Z,14.10
2023-01-03T19:39:02.621Z,19.83
2023-01-03T19:41:31.265Z,14.13
2023-01-03T19:43:59.654Z,15.40
2023-01-03T19:46:28.205Z,13.83
2023-01-03T19:48:56.585Z,14.67
2023-01-03T19:51:25.077Z,16.10
2023-01-03T19:53:54.908Z,16.07
2023-01-03T19:56:24.269Z,12.93
2023-01-03T19:58:55.447Z,13.20
2023-01-03T20:01:26.424Z,11.00
2023-01-03T20:03:55.180Z,12.63
2023-01-03T20:06:23.763Z,16.63
2023-01-03T20:08:53.788Z,18.17
2023-01-03T20:11:24.295Z,17.93
2023-01-03T20:13:52.717Z,23.63
2023-01-03T20:16:23.656Z,24.03
2023-01-03T20:18:52.328Z,15.90
2023-01-03T20:21:23.328Z,18.30
2023-01-03T20:23:53.855Z,17.40
2023-01-03T20:26:24.606Z,17.13
2023-01-03T20:28:53.438Z,16.53
2023-01-03T20:31:22.090Z,16.13
2023-01-03T20:33:50.814Z,16.83
2023-01-03T20:36:23.496Z,18.97
2023-01-03T20:38:53.669Z,19.00
2023-01-03T20:41:35.899Z,17.60
2023-01-03T20:44:07.934Z,20.27
2023-01-03T20:46:38.882Z,17.40
2023-01-03T20:49:12.510Z,19.43
2023-01-03T20:51:40.897Z,15.50
2023-01-03T20:54:09.540Z,17.50
2023-01-03T20:56:37.909Z,20.03
2023-01-03T20:59:07.929Z,19.77
2023-01-03T21:01:36.587Z,15.53
2023-01-03T21:04:05.101Z,19.23
2023-01-03T21:06:34.758Z,18.83
2023-01-03T21:09:03.531Z,16.23
2023-01-03T21:11:32.593Z,16.80
2023-01-03T21:14:02.203Z,20.30
2023-01-03T21:16:33.529Z,26.60
2023-01-03T21:19:06.566Z,18.53
2023-01-03T21:21:35.581Z,24.93
2023-01-03T21:24:04.409Z,23.10
2023-01-03T21:26:32.935Z,16.13
2023-01-03T21:29:02.450Z,16.50
2023-01-03T21:31:30.935Z,20.33
2023-01-03T21:34:00.916Z,19.20
2023-01-03T21:36:30.669Z,18.97
2023-01-03T21:38:59.440Z,23.67
2023-01-03T21:41:29.211Z,21.90
2023-01-03T21:43:57.879Z,15.77
2023-01-03T21:46:26.761Z,16.97
2023-01-03T21:48:55.767Z,18.00
2023-01-03T21:51:41.118Z,22.33
2023-01-03T21:54:09.779Z,18.67
2023-01-03T21:56:45.682Z,17.47
2023-01-03T21:59:14.948Z,23.00
2023-01-03T22:02:02.147Z,18.67
2023-01-03T22:04:30.799Z,14.47
2023-01-03T22:07:02.001Z,18.47
2023-01-03T22:09:48.432Z,15.17
2023-01-03T22:12:16.956Z,19.93
2023-01-03T22:14:45.691Z,17.93
2023-01-03T22:17:14.344Z,15.97
2023-01-03T22:19:42.952Z,13.40
2023-01-03T22:22:13.038Z,17.77
2023-01-03T22:24:41.479Z,16.50
2023-01-03T22:27:10.958Z,17.03
2023-01-03T22:29:39.279Z,20.33
2023-01-03T22:32:07.787Z,16.40
2023-01-03T22:34:39.176Z,15.03
2023-01-03T22:37:07.571Z,15.50
2023-01-03T22:39:37.313Z,13.30
2023-01-03T22:42:05.837Z,15.07
2023-01-03T22:44:34.248Z,16.80
2023-01-03T22:47:02.822Z,16.23
2023-01-03T22:49:31.309Z,18.97
2023-01-03T22:51:59.715Z,14.67
2023-01-03T22:54:28.940Z,14.53
2023-01-03T22:56:58.988Z,11.47
2023-01-03T22:59:27.319Z,15.97
2023-01-03T23:01:55.752Z,14.27
2023-01-03T23:04:24.384Z,14.23
2023-01-03T23:06:52.939Z,14.77
2023-01-03T23:09:21.678Z,16.20
2023-01-03T23:12:07.634Z,12.93
2023-01-03T23:14:37.521Z,13.50
2023-01-03T23:17:19.836Z,13.90
2023-01-03T23:19:48.209Z,14.17
2023-01-03T23:22:16.581Z,15.47
2023-01-03T23:24:44.926Z,13.77
2023-01-03T23:27:13.302Z,14.30
2023-01-03T23:29:42.992Z,15.97
2023-01-03T23:32:11.696Z,16.73
2023-01-03T23:34:40.189Z,13.23
2023-01-03T23:37:08.658Z,16.53
2023-01-03T23:39:37.073Z,15.73
2023-01-03T23:42:05.617Z,19.37
2023-01-03T23:44:34.043Z,15.77
2023-01-03T23:47:11.015Z,14.70
2023-01-03T23:49:40.070Z,17.83
2023-01-03T23:52:08.543Z,17.37
2023-01-03T23:54:37.029Z,24.40
2023-01-03T23:57:06.078Z,20.80
2023-01-03T23:59:34.565Z,16.00
